sensor_id;sensor_type;location;lat;lon;timestamp;P1;durP1;ratioP1;P2;durP2;ratioP2
72156;SDS011;60035;52.122;5.406;2024-03-17T08:31:55;11.32;;;4.50;;
72156;SDS011;60035;52.122;5.406;2024-03-17T08:34:39;13.40;;;5.03;;
72156;SDS011;60035;52.122;5.406;2024-03-17T08:40:11;12.68;;;5.57;;
72156;SDS011;60035;52.122;5.406;2024-03-17T20:55:39;20.92;;;9.90;;
72156;SDS011;60035;52.122;5.406;2024-03-17T20:58:30;22.33;;;7.95;;
72156;SDS011;60035;52.122;5.406;2024-03-17T21:03:50;18.02;;;7.57;;
72156;SDS011;60035;52.122;5.406;2024-03-17T21:06:49;16.70;;;7.35;;
72156;SDS011;60035;52.122;5.406;2024-03-17T21:09:39;22.27;;;11.20;;
72156;SDS011;60035;52.122;5.406;2024-03-17T21:12:12;18.60;;;9.00;;
72156;SDS011;60035;52.122;5.406;2024-03-17T21:14:51;17.05;;;8.20;;
72156;SDS011;60035;52.122;5.406;2024-03-17T21:20:02;19.13;;;9.48;;
72156;SDS011;60035;52.122;5.406;2024-03-17T21:22:35;21.75;;;9.88;;
72156;SDS011;60035;52.122;5.406;2024-03-17T21:25:09;16.08;;;7.53;;
72156;SDS011;60035;52.122;5.406;2024-03-17T21:35:25;16.45;;;7.97;;
72156;SDS011;60035;52.122;5.406;2024-03-17T21:37:57;15.07;;;7.00;;
72156;SDS011;60035;52.122;5.406;2024-03-17T21:44:26;17.95;;;7.80;;
72156;SDS011;60035;52.122;5.406;2024-03-17T21:49:40;17.48;;;7.10;;
72156;SDS011;60035;52.122;5.406;2024-03-17T21:52:11;17.77;;;8.55;;
72156;SDS011;60035;52.122;5.406;2024-03-17T21:54:42;18.55;;;7.60;;
72156;SDS011;60035;52.122;5.406;2024-03-17T21:57:13;17.13;;;6.80;;
72156;SDS011;60035;52.122;5.406;2024-03-17T21:59:46;18.13;;;7.72;;
72156;SDS011;60035;52.122;5.406;2024-03-17T22:02:21;17.55;;;7.90;;
72156;SDS011;60035;52.122;5.406;2024-03-17T22:04:54;19.73;;;8.20;;
72156;SDS011;60035;52.122;5.406;2024-03-17T22:13:42;16.35;;;7.07;;
72156;SDS011;60035;52.122;5.406;2024-03-17T22:19:04;17.38;;;7.35;;
72156;SDS011;60035;52.122;5.406;2024-03-17T22:21:35;16.52;;;7.38;;
72156;SDS011;60035;52.122;5.406;2024-03-17T22:24:05;16.08;;;6.70;;
72156;SDS011;60035;52.122;5.406;2024-03-17T22:29:23;15.02;;;7.03;;
72156;SDS011;60035;52.122;5.406;2024-03-17T22:31:56;16.38;;;7.55;;
72156;SDS011;60035;52.122;5.406;2024-03-17T22:34:26;15.10;;;6.80;;
72156;SDS011;60035;52.122;5.406;2024-03-17T22:37:09;14.82;;;7.18;;
72156;SDS011;60035;52.122;5.406;2024-03-17T22:39:40;14.77;;;6.65;;
72156;SDS011;60035;52.122;5.406;2024-03-17T22:42:10;13.40;;;6.72;;
72156;SDS011;60035;52.122;5.406;2024-03-17T22:44:40;14.68;;;6.38;;
72156;SDS011;60035;52.122;5.406;2024-03-17T22:50:31;14.00;;;6.03;;
72156;SDS011;60035;52.122;5.406;2024-03-17T22:53:01;12.85;;;6.07;;
72156;SDS011;60035;52.122;5.406;2024-03-17T22:55:31;14.23;;;6.32;;
72156;SDS011;60035;52.122;5.406;2024-03-17T22:58:02;12.38;;;5.82;;
72156;SDS011;60035;52.122;5.406;2024-03-17T23:00:32;13.30;;;5.93;;
72156;SDS011;60035;52.122;5.406;2024-03-17T23:03:17;13.57;;;6.10;;
72156;SDS011;60035;52.122;5.406;2024-03-17T23:08:59;12.82;;;5.72;;
72156;SDS011;60035;52.122;5.406;2024-03-17T23:11:29;13.35;;;6.00;;
72156;SDS011;60035;52.122;5.406;2024-03-17T23:14:00;12.55;;;5.75;;
72156;SDS011;60035;52.122;5.406;2024-03-17T23:19:28;12.35;;;5.63;;
72156;SDS011;60035;52.122;5.406;2024-03-17T23:21:58;10.75;;;5.10;;
72156;SDS011;60035;52.122;5.406;2024-03-17T23:24:31;13.88;;;6.95;;
72156;SDS011;60035;52.122;5.406;2024-03-17T23:27:03;12.25;;;5.95;;
72156;SDS011;60035;52.122;5.406;2024-03-17T23:29:34;12.95;;;5.82;;
72156;SDS011;60035;52.122;5.406;2024-03-17T23:32:04;12.30;;;5.70;;
72156;SDS011;60035;52.122;5.406;2024-03-17T23:34:35;10.68;;;5.55;;
72156;SDS011;60035;52.122;5.406;2024-03-17T23:37:12;11.35;;;4.97;;
72156;SDS011;60035;52.122;5.406;2024-03-17T23:39:45;12.63;;;6.03;;
72156;SDS011;60035;52.122;5.406;2024-03-17T23:42:15;11.05;;;5.45;;
72156;SDS011;60035;52.122;5.406;2024-03-17T23:44:46;10.70;;;5.18;;
72156;SDS011;60035;52.122;5.406;2024-03-17T23:50:43;11.93;;;5.40;;
72156;SDS011;60035;52.122;5.406;2024-03-17T23:53:14;11.82;;;5.18;;
72156;SDS011;60035;52.122;5.406;2024-03-17T23:58:57;12.32;;;6.07;;
